sensor_id;sensor_type;location;lat;lon;timestamp;pressure;altitude;pressure_sealevel;temperature;humidity
21574;BME280;10948;48.706;9.258;2024-01-30T00:00:13;99134.97;;;1.87;100.00
21574;BME280;10948;48.706;9.258;2024-01-30T00:02:39;99135.84;;;1.85;100.00
21574;BME280;10948;48.706;9.258;2024-01-30T00:05:04;99123.91;;;1.75;100.00
21574;BME280;10948;48.706;9.258;2024-01-30T00:07:29;99139.31;;;1.72;100.00
21574;BME280;10948;48.706;9.258;2024-01-30T00:09:55;99130.78;;;1.65;100.00
21574;BME280;10948;48.706;9.258;2024-01-30T00:12:20;99130.78;;;1.70;100.00
21574;BME280;10948;48.706;9.258;2024-01-30T00:14:45;99137.66;;;1.57;100.00
21574;BME280;10948;48.706;9.258;2024-01-30T00:17:10;99141.91;;;1.63;100.00
21574;BME280;10948;48.706;9.258;2024-01-30T00:19:36;99133.34;;;1.70;100.00
21574;BME280;10948;48.706;9.258;2024-01-30T00:22:01;99137.63;;;1.60;100.00
21574;BME280;10948;48.706;9.258;2024-01-30T00:24:26;99131.63;;;1.69;100.00
21574;BME280;10948;48.706;9.258;2024-01-30T00:26:51;99135.00;;;1.83;100.00
21574;BME280;10948;48.706;9.258;2024-01-30T00:29:17;99139.28;;;1.79;100.00
21574;BME280;10948;48.706;9.258;2024-01-30T00:31:44;99132.34;;;2.07;100.00
21574;BME280;10948;48.706;9.258;2024-01-30T00:34:10;99130.69;;;1.91;100.00
21574;BME280;10948;48.706;9.258;2024-01-30T00:36:35;99131.63;;;1.66;100.00
21574;BME280;10948;48.706;9.258;2024-01-30T00:39:00;99131.56;;;1.90;100.00
21574;BME280;10948;48.706;9.258;2024-01-30T00:41:25;99134.13;;;1.82;100.00
21574;BME280;10948;48.706;9.258;2024-01-30T00:43:51;99129.91;;;1.74;100.00
21574;BME280;10948;48.706;9.258;2024-01-30T00:46:17;99134.16;;;1.79;100.00
21574;BME280;10948;48.706;9.258;2024-01-30T00:48:42;99129.81;;;1.92;100.00
21574;BME280;10948;48.706;9.258;2024-01-30T00:51:07;99132.38;;;1.98;100.00
21574;BME280;10948;48.706;9.258;2024-01-30T00:53:32;99129.81;;;1.95;100.00
21574;BME280;10948;48.706;9.258;2024-01-30T00:55:58;99132.47;;;1.80;100.00
21574;BME280;10948;48.706;9.258;2024-01-30T00:58:23;99129.88;;;1.83;100.00
21574;BME280;10948;48.706;9.258;2024-01-30T01:00:48;99137.59;;;1.77;100.00
21574;BME280;10948;48.706;9.258;2024-01-30T01:03:13;99136.75;;;1.75;100.00
21574;BME280;10948;48.706;9.258;2024-01-30T01:05:39;99139.34;;;1.63;100.00
21574;BME280;10948;48.706;9.258;2024-01-30T01:08:04;99138.41;;;1.86;100.00
21574;BME280;10948;48.706;9.258;2024-01-30T01:10:29;99145.25;;;1.83;100.00
21574;BME280;10948;48.706;9.258;2024-01-30T01:12:54;99149.59;;;1.67;100.00
21574;BME280;10948;48.706;9.258;2024-01-30T01:15:20;99144.50;;;1.60;100.00
21574;BME280;10948;48.706;9.258;2024-01-30T01:17:45;99147.94;;;1.50;100.00
21574;BME280;10948;48.706;9.258;2024-01-30T01:20:10;99141.97;;;1.42;100.00
21574;BME280;10948;48.706;9.258;2024-01-30T01:22:36;99147.94;;;1.53;100.00
21574;BME280;10948;48.706;9.258;2024-01-30T01:25:03;99141.09;;;1.56;100.00
21574;BME280;10948;48.706;9.258;2024-01-30T01:27:31;99141.88;;;1.66;100.00
21574;BME280;10948;48.706;9.258;2024-01-30T01:29:58;99135.13;;;1.47;100.00
21574;BME280;10948;48.706;9.258;2024-01-30T01:32:23;99135.03;;;1.71;100.00
21574;BME280;10948;48.706;9.258;2024-01-30T01:34:48;99135.06;;;1.68;100.00
21574;BME280;10948;48.706;9.258;2024-01-30T01:37:13;99131.59;;;1.72;100.00
21574;BME280;10948;48.706;9.258;2024-01-30T01:39:38;99135.94;;;1.53;100.00
21574;BME280;10948;48.706;9.258;2024-01-30T01:42:03;99141.94;;;1.51;100.00
21574;BME280;10948;48.706;9.258;2024-01-30T01:44:29;99140.25;;;1.44;100.00
21574;BME280;10948;48.706;9.258;2024-01-30T01:46:54;99139.41;;;1.42;100.00
21574;BME280;10948;48.706;9.258;2024-01-30T01:49:20;99140.22;;;1.50;100.00
21574;BME280;10948;48.706;9.258;2024-01-30T01:51:46;99135.94;;;1.58;100.00
21574;BME280;10948;48.706;9.258;2024-01-30T01:54:12;99143.63;;;1.67;100.00
21574;BME280;10948;48.706;9.258;2024-01-30T01:56:39;99143.63;;;1.52;100.00
21574;BME280;10948;48.706;9.258;2024-01-30T01:59:05;99131.63;;;1.69;100.00
21574;BME280;10948;48.706;9.258;2024-01-30T02:01:32;99140.19;;;1.62;100.00
21574;BME280;10948;48.706;9.258;2024-01-30T02:03:58;99141.09;;;1.55;100.00
21574;BME280;10948;48.706;9.258;2024-01-30T02:06:23;99135.06;;;1.65;100.00
21574;BME280;10948;48.706;9.258;2024-01-30T02:08:48;99140.19;;;1.59;100.00
21574;BME280;10948;48.706;9.258;2024-01-30T02:11:13;99146.16;;;1.62;100.00
21574;BME280;10948;48.706;9.258;2024-01-30T02:13:40;99139.38;;;1.51;100.00
21574;BME280;10948;48.706;9.258;2024-01-30T02:16:05;99141.94;;;1.45;100.00
21574;BME280;10948;48.706;9.258;2024-01-30T02:18:31;99145.38;;;1.38;100.00
21574;BME280;10948;48.706;9.258;2024-01-30T02:20:56;99141.13;;;1.31;100.00
21574;BME280;10948;48.706;9.258;2024-01-30T02:23:24;99139.41;;;1.31;100.00
21574;BME280;10948;48.706;9.258;2024-01-30T02:25:50;99140.25;;;1.38;100.00
21574;BME280;10948;48.706;9.258;2024-01-30T02:28:17;99136.84;;;1.24;100.00
21574;BME280;10948;48.706;9.258;2024-01-30T02:30:43;99143.69;;;1.31;100.00
21574;BME280;10948;48.706;9.258;2024-01-30T02:33:08;99146.25;;;1.14;100.00
21574;BME280;10948;48.706;9.258;2024-01-30T02:35:33;99140.28;;;1.17;100.00
21574;BME280;10948;48.706;9.258;2024-01-30T02:37:59;99141.09;;;1.50;100.00
21574;BME280;10948;48.706;9.258;2024-01-30T02:40:24;99141.09;;;1.56;100.00
21574;BME280;10948;48.706;9.258;2024-01-30T02:42:49;99141.97;;;1.42;100.00
21574;BME280;10948;48.706;9.258;2024-01-30T02:45:15;99144.56;;;1.33;100.00
21574;BME280;10948;48.706;9.258;2024-01-30T02:47:40;99145.41;;;1.30;100.00
21574;BME280;10948;48.706;9.258;2024-01-30T02:50:06;99137.72;;;1.36;100.00
21574;BME280;10948;48.706;9.258;2024-01-30T02:52:31;99140.28;;;1.35;100.00
21574;BME280;10948;48.706;9.258;2024-01-30T02:54:57;99140.28;;;1.11;100.00
21574;BME280;10948;48.706;9.258;2024-01-30T02:57:22;99141.16;;;0.90;100.00
21574;BME280;10948;48.706;9.258;2024-01-30T02:59:47;99136.00;;;1.02;100.00
21574;BME280;10948;48.706;9.258;2024-01-30T03:02:12;99134.31;;;1.13;100.00
21574;BME280;10948;48.706;9.258;2024-01-30T03:04:40;99136.88;;;1.01;100.00
21574;BME280;10948;48.706;9.258;2024-01-30T03:07:05;99139.44;;;0.95;100.00
21574;BME280;10948;48.706;9.258;2024-01-30T03:09:30;99137.72;;;1.06;100.00
21574;BME280;10948;48.706;9.258;2024-01-30T03:11:56;99133.47;;;0.83;100.00
21574;BME280;10948;48.706;9.258;2024-01-30T03:14:21;99136.88;;;0.97;100.00
21574;BME280;10948;48.706;9.258;2024-01-30T03:16:46;99137.72;;;0.73;100.00
21574;BME280;10948;48.706;9.258;2024-01-30T03:19:11;99133.47;;;0.89;100.00
21574;BME280;10948;48.706;9.258;2024-01-30T03:21:36;99142.03;;;0.88;100.00
21574;BME280;10948;48.706;9.258;2024-01-30T03:24:02;99142.88;;;0.87;100.00
21574;BME280;10948;48.706;9.258;2024-01-30T03:26:27;99144.56;;;0.82;100.00
21574;BME280;10948;48.706;9.258;2024-01-30T03:28:52;99142.00;;;0.82;100.00
21574;BME280;10948;48.706;9.258;2024-01-30T03:31:17;99140.31;;;0.75;100.00
21574;BME280;10948;48.706;9.258;2024-01-30T03:33:43;99144.56;;;0.65;100.00
21574;BME280;10948;48.706;9.258;2024-01-30T03:36:08;99145.44;;;0.81;100.00
21574;BME280;10948;48.706;9.258;2024-01-30T03:38:34;99140.28;;;0.84;100.00
21574;BME280;10948;48.706;9.258;2024-01-30T03:40:59;99143.72;;;0.95;100.00
21574;BME280;10948;48.706;9.258;2024-01-30T03:43:25;99145.44;;;0.87;100.00
21574;BME280;10948;48.706;9.258;2024-01-30T03:45:50;99139.44;;;1.04;100.00
21574;BME280;10948;48.706;9.258;2024-01-30T03:48:16;99138.59;;;0.89;100.00
21574;BME280;10948;48.706;9.258;2024-01-30T03:50:41;99147.97;;;0.84;100.00
21574;BME280;10948;48.706;9.258;2024-01-30T03:53:06;99143.69;;;0.65;100.00
21574;BME280;10948;48.706;9.258;2024-01-30T03:55:31;99151.38;;;0.69;100.00
21574;BME280;10948;48.706;9.258;2024-01-30T03:57:56;99132.59;;;0.63;100.00
21574;BME280;10948;48.706;9.258;2024-01-30T04:00:22;99139.44;;;0.67;100.00
21574;BME280;10948;48.706;9.258;2024-01-30T04:02:47;99141.16;;;0.66;100.00
21574;BME280;10948;48.706;9.258;2024-01-30T04:05:12;99150.56;;;0.75;100.00
21574;BME280;10948;48.706;9.258;2024-01-30T04:07:37;99148.81;;;0.65;100.00
21574;BME280;10948;48.706;9.258;2024-01-30T04:10:02;99147.13;;;0.61;100.00
21574;BME280;10948;48.706;9.258;2024-01-30T04:12:30;99148.81;;;0.59;100.00
21574;BME280;10948;48.706;9.258;2024-01-30T04:14:56;99147.13;;;0.61;100.00
21574;BME280;10948;48.706;9.258;2024-01-30T04:17:21;99152.22;;;0.55;100.00
21574;BME280;10948;48.706;9.258;2024-01-30T04:19:46;99143.69;;;0.71;100.00
21574;BME280;10948;48.706;9.258;2024-01-30T04:22:11;99148.84;;;0.77;100.00
21574;BME280;10948;48.706;9.258;2024-01-30T04:24:36;99142.00;;;0.55;100.00
21574;BME280;10948;48.706;9.258;2024-01-30T04:27:02;99143.66;;;0.44;100.00
21574;BME280;10948;48.706;9.258;2024-01-30T04:29:27;99138.56;;;0.47;100.00
21574;BME280;10948;48.706;9.258;2024-01-30T04:31:52;99134.31;;;0.53;100.00
21574;BME280;10948;48.706;9.258;2024-01-30T04:34:17;99141.13;;;0.54;100.00
21574;BME280;10948;48.706;9.258;2024-01-30T04:36:44;99141.97;;;0.52;100.00
21574;BME280;10948;48.706;9.258;2024-01-30T04:39:09;99136.00;;;0.39;100.00
21574;BME280;10948;48.706;9.258;2024-01-30T04:41:34;99143.69;;;0.53;100.00
21574;BME280;10948;48.706;9.258;2024-01-30T04:43:59;99144.53;;;0.58;100.00
21574;BME280;10948;48.706;9.258;2024-01-30T04:46:25;99142.00;;;0.61;100.00
21574;BME280;10948;48.706;9.258;2024-01-30T04:48:50;99144.56;;;0.59;100.00
21574;BME280;10948;48.706;9.258;2024-01-30T04:51:15;99152.19;;;0.46;100.00
21574;BME280;10948;48.706;9.258;2024-01-30T04:53:40;99143.66;;;0.38;100.00
21574;BME280;10948;48.706;9.258;2024-01-30T04:56:05;99144.53;;;0.38;100.00
21574;BME280;10948;48.706;9.258;2024-01-30T04:58:31;99155.63;;;0.48;100.00
21574;BME280;10948;48.706;9.258;2024-01-30T05:00:56;99149.59;;;0.22;100.00
21574;BME280;10948;48.706;9.258;2024-01-30T05:03:22;99159.00;;;0.29;100.00
21574;BME280;10948;48.706;9.258;2024-01-30T05:05:48;99153.03;;;0.36;100.00
21574;BME280;10948;48.706;9.258;2024-01-30T05:08:14;99156.47;;;0.35;100.00
21574;BME280;10948;48.706;9.258;2024-01-30T05:10:39;99152.19;;;0.46;100.00
21574;BME280;10948;48.706;9.258;2024-01-30T05:13:04;99151.34;;;0.39;100.00
21574;BME280;10948;48.706;9.258;2024-01-30T05:15:29;99155.59;;;0.36;100.00
21574;BME280;10948;48.706;9.258;2024-01-30T05:17:55;99154.72;;;0.25;100.00
21574;BME280;10948;48.706;9.258;2024-01-30T05:20:20;99155.59;;;0.30;100.00
21574;BME280;10948;48.706;9.258;2024-01-30T05:22:45;99148.78;;;0.41;100.00
21574;BME280;10948;48.706;9.258;2024-01-30T05:25:12;99157.31;;;0.37;100.00
21574;BME280;10948;48.706;9.258;2024-01-30T05:27:37;99151.28;;;0.18;100.00
21574;BME280;10948;48.706;9.258;2024-01-30T05:30:02;99153.00;;;0.19;100.00
21574;BME280;10948;48.706;9.258;2024-01-30T05:32:28;99158.09;;;0.16;100.00
21574;BME280;10948;48.706;9.258;2024-01-30T05:34:53;99153.00;;;0.21;100.00
21574;BME280;10948;48.706;9.258;2024-01-30T05:37:18;99164.09;;;0.23;100.00
21574;BME280;10948;48.706;9.258;2024-01-30T05:39:44;99164.97;;;0.32;100.00
21574;BME280;10948;48.706;9.258;2024-01-30T05:42:09;99160.72;;;0.36;100.00
21574;BME280;10948;48.706;9.258;2024-01-30T05:44:35;99163.22;;;0.19;100.00
21574;BME280;10948;48.706;9.258;2024-01-30T05:47:00;99160.72;;;0.30;100.00
21574;BME280;10948;48.706;9.258;2024-01-30T05:49:26;99158.13;;;0.15;100.00
21574;BME280;10948;48.706;9.258;2024-01-30T05:51:51;99159.78;;;0.13;100.00
21574;BME280;10948;48.706;9.258;2024-01-30T05:54:16;99165.75;;;0.12;100.00
21574;BME280;10948;48.706;9.258;2024-01-30T05:56:41;99166.66;;;0.21;100.00
21574;BME280;10948;48.706;9.258;2024-01-30T05:59:07;99166.63;;;0.15;100.00
21574;BME280;10948;48.706;9.258;2024-01-30T06:01:32;99164.09;;;0.14;100.00
21574;BME280;10948;48.706;9.258;2024-01-30T06:03:58;99162.34;;;0.07;100.00
21574;BME280;10948;48.706;9.258;2024-01-30T06:06:23;99166.63;;;0.15;100.00
21574;BME280;10948;48.706;9.258;2024-01-30T06:08:48;99172.63;;;0.22;100.00
21574;BME280;10948;48.706;9.258;2024-01-30T06:11:13;99169.19;;;0.14;100.00
21574;BME280;10948;48.706;9.258;2024-01-30T06:13:39;99170.09;;;0.26;100.00
21574;BME280;10948;48.706;9.258;2024-01-30T06:16:04;99170.94;;;0.27;100.00
21574;BME280;10948;48.706;9.258;2024-01-30T06:18:29;99164.91;;;0.14;100.00
21574;BME280;10948;48.706;9.258;2024-01-30T06:20:56;99164.09;;;0.14;100.00
21574;BME280;10948;48.706;9.258;2024-01-30T06:23:21;99164.94;;;0.22;100.00
21574;BME280;10948;48.706;9.258;2024-01-30T06:25:46;99165.78;;;0.16;100.00
21574;BME280;10948;48.706;9.258;2024-01-30T06:28:12;99166.63;;;0.08;100.00
21574;BME280;10948;48.706;9.258;2024-01-30T06:30:37;99164.03;;;0.05;100.00
21574;BME280;10948;48.706;9.258;2024-01-30T06:33:02;99170.81;;;-0.06;100.00
21574;BME280;10948;48.706;9.258;2024-01-30T06:35:27;99164.06;;;0.08;100.00
21574;BME280;10948;48.706;9.258;2024-01-30T06:37:53;99170.91;;;0.18;100.00
21574;BME280;10948;48.706;9.258;2024-01-30T06:40:19;99167.47;;;0.13;100.00
21574;BME280;10948;48.706;9.258;2024-01-30T06:42:44;99172.59;;;0.16;100.00
21574;BME280;10948;48.706;9.258;2024-01-30T06:45:09;99174.31;;;0.14;100.00
21574;BME280;10948;48.706;9.258;2024-01-30T06:47:34;99170.91;;;0.19;100.00
21574;BME280;10948;48.706;9.258;2024-01-30T06:50:00;99180.28;;;0.17;100.00
21574;BME280;10948;48.706;9.258;2024-01-30T06:52:27;99173.44;;;0.16;100.00
21574;BME280;10948;48.706;9.258;2024-01-30T06:54:52;99177.72;;;0.16;100.00
21574;BME280;10948;48.706;9.258;2024-01-30T06:57:17;99176.00;;;0.12;100.00
21574;BME280;10948;48.706;9.258;2024-01-30T06:59:42;99185.41;;;0.16;100.00
21574;BME280;10948;48.706;9.258;2024-01-30T07:02:09;99179.44;;;0.17;100.00
21574;BME280;10948;48.706;9.258;2024-01-30T07:04:35;99175.19;;;0.17;100.00
21574;BME280;10948;48.706;9.258;2024-01-30T07:07:02;99178.56;;;0.16;100.00
21574;BME280;10948;48.706;9.258;2024-01-30T07:09:28;99191.41;;;0.33;100.00
21574;BME280;10948;48.706;9.258;2024-01-30T07:11:54;99184.59;;;0.33;100.00
21574;BME280;10948;48.706;9.258;2024-01-30T07:14:20;99187.13;;;0.18;100.00
21574;BME280;10948;48.706;9.258;2024-01-30T07:16:45;99186.34;;;0.45;100.00
21574;BME280;10948;48.706;9.258;2024-01-30T07:19:10;99192.34;;;0.65;100.00
21574;BME280;10948;48.706;9.258;2024-01-30T07:21:36;99189.81;;;0.62;100.00
21574;BME280;10948;48.706;9.258;2024-01-30T07:24:01;99194.06;;;0.54;100.00
21574;BME280;10948;48.706;9.258;2024-01-30T07:26:26;99194.91;;;0.62;100.00
21574;BME280;10948;48.706;9.258;2024-01-30T07:28:51;99193.22;;;0.70;100.00
21574;BME280;10948;48.706;9.258;2024-01-30T07:31:17;99200.03;;;0.56;100.00
21574;BME280;10948;48.706;9.258;2024-01-30T07:33:42;99201.75;;;0.63;100.00
21574;BME280;10948;48.706;9.258;2024-01-30T07:36:07;99194.97;;;0.93;100.00
21574;BME280;10948;48.706;9.258;2024-01-30T07:38:32;99197.53;;;1.16;100.00
21574;BME280;10948;48.706;9.258;2024-01-30T07:40:58;99202.66;;;1.28;100.00
21574;BME280;10948;48.706;9.258;2024-01-30T07:43:23;99206.94;;;1.35;100.00
21574;BME280;10948;48.706;9.258;2024-01-30T07:45:49;99194.94;;;1.29;100.00
21574;BME280;10948;48.706;9.258;2024-01-30T07:48:14;99200.94;;;1.30;100.00
21574;BME280;10948;48.706;9.258;2024-01-30T07:50:39;99203.50;;;1.43;100.00
21574;BME280;10948;48.706;9.258;2024-01-30T07:53:04;99192.34;;;1.65;100.00
21574;BME280;10948;48.706;9.258;2024-01-30T07:55:30;99202.59;;;1.73;100.00
21574;BME280;10948;48.706;9.258;2024-01-30T07:57:56;99200.88;;;1.79;100.00
21574;BME280;10948;48.706;9.258;2024-01-30T08:00:22;99206.88;;;1.80;100.00
21574;BME280;10948;48.706;9.258;2024-01-30T08:02:50;99206.81;;;1.95;100.00
21574;BME280;10948;48.706;9.258;2024-01-30T08:05:15;99202.53;;;2.00;100.00
21574;BME280;10948;48.706;9.258;2024-01-30T08:07:43;99201.66;;;2.07;100.00
21574;BME280;10948;48.706;9.258;2024-01-30T08:10:11;99201.59;;;2.16;100.00
21574;BME280;10948;48.706;9.258;2024-01-30T08:12:36;99200.59;;;2.51;100.00
21574;BME280;10948;48.706;9.258;2024-01-30T08:15:01;99199.66;;;2.64;100.00
21574;BME280;10948;48.706;9.258;2024-01-30T08:17:28;99197.75;;;2.92;100.00
21574;BME280;10948;48.706;9.258;2024-01-30T08:19:53;99191.59;;;3.11;100.00
21574;BME280;10948;48.706;9.258;2024-01-30T08:22:20;99195.69;;;3.36;100.00
21574;BME280;10948;48.706;9.258;2024-01-30T08:24:46;99194.81;;;3.37;100.00
21574;BME280;10948;48.706;9.258;2024-01-30T08:27:11;99195.59;;;3.45;100.00
21574;BME280;10948;48.706;9.258;2024-01-30T08:29:37;99196.38;;;3.57;100.00
21574;BME280;10948;48.706;9.258;2024-01-30T08:32:03;99196.47;;;4.24;100.00
21574;BME280;10948;48.706;9.258;2024-01-30T08:34:29;99194.91;;;4.79;97.54
21574;BME280;10948;48.706;9.258;2024-01-30T08:36:54;99188.00;;;4.78;94.61
21574;BME280;10948;48.706;9.258;2024-01-30T08:39:19;99185.06;;;5.53;92.67
21574;BME280;10948;48.706;9.258;2024-01-30T08:41:45;99179.78;;;6.07;90.92
21574;BME280;10948;48.706;9.258;2024-01-30T08:44:11;99185.19;;;5.95;88.05
21574;BME280;10948;48.706;9.258;2024-01-30T08:46:37;99181.13;;;6.26;86.28
21574;BME280;10948;48.706;9.258;2024-01-30T08:49:02;99186.25;;;6.69;82.76
21574;BME280;10948;48.706;9.258;2024-01-30T08:51:29;99189.41;;;7.19;80.44
21574;BME280;10948;48.706;9.258;2024-01-30T08:53:55;99189.81;;;7.71;77.62
21574;BME280;10948;48.706;9.258;2024-01-30T08:56:20;99194.94;;;7.04;78.10
21574;BME280;10948;48.706;9.258;2024-01-30T08:58:45;99196.03;;;6.93;79.52
21574;BME280;10948;48.706;9.258;2024-01-30T09:01:11;99195.34;;;6.86;81.28
21574;BME280;10948;48.706;9.258;2024-01-30T09:03:37;99198.75;;;6.88;80.21
21574;BME280;10948;48.706;9.258;2024-01-30T09:06:07;99201.81;;;6.67;80.88
21574;BME280;10948;48.706;9.258;2024-01-30T09:08:33;99200.38;;;6.92;80.44
21574;BME280;10948;48.706;9.258;2024-01-30T09:10:58;99200.78;;;7.12;79.83
21574;BME280;10948;48.706;9.258;2024-01-30T09:13:24;99198.53;;;8.01;77.90
21574;BME280;10948;48.706;9.258;2024-01-30T09:15:49;99201.47;;;7.87;76.83
21574;BME280;10948;48.706;9.258;2024-01-30T09:18:14;99201.94;;;7.69;76.73
21574;BME280;10948;48.706;9.258;2024-01-30T09:20:39;99198.94;;;7.52;77.06
21574;BME280;10948;48.706;9.258;2024-01-30T09:23:05;99202.47;;;7.48;78.01
21574;BME280;10948;48.706;9.258;2024-01-30T09:25:30;99211.00;;;7.18;78.72
21574;BME280;10948;48.706;9.258;2024-01-30T09:27:55;99205.56;;;6.92;79.63
21574;BME280;10948;48.706;9.258;2024-01-30T09:30:21;99204.47;;;6.64;80.60
21574;BME280;10948;48.706;9.258;2024-01-30T09:32:46;99207.91;;;6.63;81.88
21574;BME280;10948;48.706;9.258;2024-01-30T09:35:11;99209.59;;;7.40;80.80
21574;BME280;10948;48.706;9.258;2024-01-30T09:37:37;99199.31;;;7.71;80.03
21574;BME280;10948;48.706;9.258;2024-01-30T09:40:02;99208.41;;;7.18;79.88
21574;BME280;10948;48.706;9.258;2024-01-30T09:42:28;99212.38;;;7.66;79.15
21574;BME280;10948;48.706;9.258;2024-01-30T09:44:58;99212.53;;;7.60;78.97
21574;BME280;10948;48.706;9.258;2024-01-30T09:47:23;99210.09;;;8.50;78.03
21574;BME280;10948;48.706;9.258;2024-01-30T09:49:48;99214.31;;;8.54;75.78
21574;BME280;10948;48.706;9.258;2024-01-30T09:52:14;99218.06;;;8.73;76.39
21574;BME280;10948;48.706;9.258;2024-01-30T09:54:40;99210.28;;;8.73;76.30
21574;BME280;10948;48.706;9.258;2024-01-30T09:57:06;99207.50;;;7.88;77.86
21574;BME280;10948;48.706;9.258;2024-01-30T09:59:32;99216.69;;;7.67;80.13
21574;BME280;10948;48.706;9.258;2024-01-30T10:01:58;99201.47;;;7.87;81.91
21574;BME280;10948;48.706;9.258;2024-01-30T10:04:23;99218.88;;;7.82;80.94
21574;BME280;10948;48.706;9.258;2024-01-30T10:06:48;99209.19;;;7.55;81.59
21574;BME280;10948;48.706;9.258;2024-01-30T10:09:14;99201.88;;;8.04;81.29
21574;BME280;10948;48.706;9.258;2024-01-30T10:11:39;99207.25;;;8.59;80.45
21574;BME280;10948;48.706;9.258;2024-01-30T10:14:05;99203.25;;;9.58;76.11
21574;BME280;10948;48.706;9.258;2024-01-30T10:16:30;99205.41;;;10.45;73.88
21574;BME280;10948;48.706;9.258;2024-01-30T10:18:55;99203.66;;;9.96;72.67
21574;BME280;10948;48.706;9.258;2024-01-30T10:21:21;99202.81;;;9.19;74.40
21574;BME280;10948;48.706;9.258;2024-01-30T10:23:46;99201.13;;;9.70;73.86
21574;BME280;10948;48.706;9.258;2024-01-30T10:26:11;99203.56;;;9.23;74.75
21574;BME280;10948;48.706;9.258;2024-01-30T10:28:37;99198.63;;;9.41;75.09
21574;BME280;10948;48.706;9.258;2024-01-30T10:31:03;99194.59;;;9.05;76.44
21574;BME280;10948;48.706;9.258;2024-01-30T10:33:29;99193.47;;;8.86;77.22
21574;BME280;10948;48.706;9.258;2024-01-30T10:36:00;99199.50;;;9.14;77.12
21574;BME280;10948;48.706;9.258;2024-01-30T10:38:25;99206.47;;;8.85;77.34
21574;BME280;10948;48.706;9.258;2024-01-30T10:40:53;99198.78;;;9.09;77.81
21574;BME280;10948;48.706;9.258;2024-01-30T10:43:21;99190.31;;;8.48;77.97
21574;BME280;10948;48.706;9.258;2024-01-30T10:45:46;99196.75;;;8.33;79.02
21574;BME280;10948;48.706;9.258;2024-01-30T10:48:14;99183.44;;;8.74;79.33
21574;BME280;10948;48.706;9.258;2024-01-30T10:50:41;99186.00;;;8.76;79.36
21574;BME280;10948;48.706;9.258;2024-01-30T10:53:07;99188.28;;;8.57;80.16
21574;BME280;10948;48.706;9.258;2024-01-30T10:55:33;99187.47;;;8.55;80.55
21574;BME280;10948;48.706;9.258;2024-01-30T10:58:00;99179.38;;;9.21;79.41
21574;BME280;10948;48.706;9.258;2024-01-30T11:00:25;99178.34;;;9.26;77.88
21574;BME280;10948;48.706;9.258;2024-01-30T11:02:51;99176.13;;;9.14;78.01
21574;BME280;10948;48.706;9.258;2024-01-30T11:05:23;99177.09;;;9.38;77.42
21574;BME280;10948;48.706;9.258;2024-01-30T11:07:50;99177.78;;;9.17;76.71
21574;BME280;10948;48.706;9.258;2024-01-30T11:10:15;99174.03;;;9.25;76.11
21574;BME280;10948;48.706;9.258;2024-01-30T11:12:41;99179.38;;;8.93;75.90
21574;BME280;10948;48.706;9.258;2024-01-30T11:15:09;99171.81;;;9.13;76.27
21574;BME280;10948;48.706;9.258;2024-01-30T11:20:14;99177.97;;;9.11;76.84
21574;BME280;10948;48.706;9.258;2024-01-30T11:22:40;99175.19;;;8.89;78.28
21574;BME280;10948;48.706;9.258;2024-01-30T11:25:06;99175.19;;;8.89;80.23
21574;BME280;10948;48.706;9.258;2024-01-30T11:27:32;99166.38;;;8.95;80.83
21574;BME280;10948;48.706;9.258;2024-01-30T11:30:02;99170.69;;;8.94;80.44
21574;BME280;10948;48.706;9.258;2024-01-30T11:32:27;99165.31;;;9.00;80.44
21574;BME280;10948;48.706;9.258;2024-01-30T11:34:53;99170.69;;;8.94;80.73
21574;BME280;10948;48.706;9.258;2024-01-30T11:37:19;99169.97;;;8.89;80.98
21574;BME280;10948;48.706;9.258;2024-01-30T11:39:45;99166.19;;;9.27;80.44
21574;BME280;10948;48.706;9.258;2024-01-30T11:42:11;99165.34;;;9.52;79.57
21574;BME280;10948;48.706;9.258;2024-01-30T11:44:36;99162.03;;;9.47;79.30
21574;BME280;10948;48.706;9.258;2024-01-30T11:47:02;99161.22;;;9.71;79.15
21574;BME280;10948;48.706;9.258;2024-01-30T11:49:28;99153.06;;;9.82;78.36
21574;BME280;10948;48.706;9.258;2024-01-30T11:51:53;99159.09;;;9.82;78.10
21574;BME280;10948;48.706;9.258;2024-01-30T11:54:19;99148.63;;;9.84;78.63
21574;BME280;10948;48.706;9.258;2024-01-30T11:56:44;99141.69;;;9.60;78.82
21574;BME280;10948;48.706;9.258;2024-01-30T11:59:09;99144.75;;;9.95;78.78
21574;BME280;10948;48.706;9.258;2024-01-30T12:01:36;99139.94;;;9.85;79.05
21574;BME280;10948;48.706;9.258;2024-01-30T12:04:01;99133.94;;;9.83;79.53
21574;BME280;10948;48.706;9.258;2024-01-30T12:06:27;99138.06;;;9.88;80.50
21574;BME280;10948;48.706;9.258;2024-01-30T12:08:58;99135.31;;;9.93;80.95
21574;BME280;10948;48.706;9.258;2024-01-30T12:11:24;99132.56;;;9.97;80.43
21574;BME280;10948;48.706;9.258;2024-01-30T12:13:49;99127.31;;;10.23;79.83
21574;BME280;10948;48.706;9.258;2024-01-30T12:16:15;99123.59;;;9.81;80.46
21574;BME280;10948;48.706;9.258;2024-01-30T12:18:41;99123.75;;;10.01;80.97
21574;BME280;10948;48.706;9.258;2024-01-30T12:21:06;99124.75;;;10.22;81.38
21574;BME280;10948;48.706;9.258;2024-01-30T12:23:34;99119.72;;;10.17;81.81
21574;BME280;10948;48.706;9.258;2024-01-30T12:26:00;99119.72;;;10.17;82.52
21574;BME280;10948;48.706;9.258;2024-01-30T12:28:26;99112.56;;;10.22;81.77
21574;BME280;10948;48.706;9.258;2024-01-30T12:31:13;99099.81;;;10.82;80.76
21574;BME280;10948;48.706;9.258;2024-01-30T12:33:38;99104.25;;;11.01;79.31
21574;BME280;10948;48.706;9.258;2024-01-30T12:36:04;99106.75;;;10.83;80.34
21574;BME280;10948;48.706;9.258;2024-01-30T12:38:29;99103.53;;;10.77;81.00
21574;BME280;10948;48.706;9.258;2024-01-30T12:40:55;99096.69;;;10.74;81.35
21574;BME280;10948;48.706;9.258;2024-01-30T12:43:21;99094.75;;;10.79;82.48
21574;BME280;10948;48.706;9.258;2024-01-30T12:45:47;99098.81;;;10.86;83.24
21574;BME280;10948;48.706;9.258;2024-01-30T12:48:12;99098.06;;;11.04;82.67
21574;BME280;10948;48.706;9.258;2024-01-30T12:50:38;99091.47;;;11.17;81.92
21574;BME280;10948;48.706;9.258;2024-01-30T12:53:03;99096.78;;;11.14;81.34
21574;BME280;10948;48.706;9.258;2024-01-30T12:55:29;99098.13;;;12.04;78.79